Home Place, Louisiana
Current Conditions -  °F | °C
As of 5:55 AM on Thursday 18 Dec 2014 (Local Time) from KNBG Reporting Station
Broken Clouds Broken Clouds  
Wind Chill: 46°   Ceiling: 25000
Heat Index: 46°   Visibility: 10mi
Dew Point: 45°   Wind: 3mph
Humidity: 96%   Direction: 30°NNE
Pressure: 30.16"   Gusts: NA
Location:  29.4927°N, 89.8165°W
Report Text: KNBG 181155Z 03003KT 10SM SCT120 BKN250 08/07 A3016 RMK AO2 SLP212 T00780072 10106 20072 55002 $
Loading
Personal Weather Stations






























Interactive Weather Map New forecast layout! Learn more

10-Day Weather Forecast

Advertisements
Track Severe Weather on mobile